Time;durP1;ratioP1;P1;durP2;ratioP2;P2;SDS_P1;SDS_P2;PMS_P1;PMS_P2;Temp;Humidity;BMP_temperature;BMP_pressure;BME280_temperature;BME280_humidity;BME280_pressure;Samples;Min_cycle;Max_cycle;Signal;HPM_P1;HPM_P2
2022/02/15 00:00:48;;;;;;;4.63;3.53;;;;;21.30;99524.00;;;;2061135;28;20463;-87
2022/02/15 00:01:48;;;;;;;4.90;3.37;;;;;21.30;99529.00;;;;2061400;28;20223;-87
2022/02/15 00:02:49;;;;;;;5.50;3.60;;;;;21.30;99522.00;;;;2061505;28;20261;-86
2022/02/15 00:03:52;;;;;;;4.50;3.63;;;;;21.30;99537.00;;;;2058733;28;20215;-86
2022/02/15 00:04:52;;;;;;;4.40;3.22;;;;;21.30;99532.00;;;;2060297;28;20202;-86
2022/02/15 00:05:52;;;;;;;4.53;3.27;;;;;21.30;99536.00;;;;2060506;28;20585;-87
2022/02/15 00:06:52;;;;;;;3.50;2.90;;;;;21.30;99530.00;;;;2060207;28;20830;-88
2022/02/15 00:07:53;;;;;;;6.77;3.30;;;;;21.30;99534.00;;;;2060122;28;20760;-87
2022/02/15 00:08:53;;;;;;;5.20;3.23;;;;;21.30;99536.00;;;;2063805;28;20210;-87
2022/02/15 00:09:54;;;;;;;4.10;3.00;;;;;21.30;99532.00;;;;2060029;28;20265;-88
2022/02/15 00:10:54;;;;;;;4.73;3.03;;;;;21.30;99529.00;;;;2058370;28;20223;-87
2022/02/15 00:11:54;;;;;;;4.07;3.10;;;;;21.30;99534.00;;;;2051855;28;20578;-87
2022/02/15 00:12:55;;;;;;;3.97;2.80;;;;;21.30;99538.00;;;;2063679;28;20722;-87
2022/02/15 00:13:55;;;;;;;4.20;2.70;;;;;21.20;99534.00;;;;2064021;28;20291;-87
2022/02/15 00:14:55;;;;;;;4.00;3.00;;;;;21.20;99537.00;;;;2050663;28;20215;-88
2022/02/15 00:15:55;;;;;;;3.87;2.80;;;;;21.20;99538.00;;;;2062006;28;20262;-88
2022/02/15 00:16:56;;;;;;;5.07;3.30;;;;;21.30;99545.00;;;;2060853;28;20740;-88
2022/02/15 00:17:57;;;;;;;3.77;2.60;;;;;21.20;99537.00;;;;2059981;28;20695;-88
2022/02/15 00:18:57;;;;;;;3.70;2.90;;;;;21.20;99531.00;;;;2050611;28;20219;-87
2022/02/15 00:19:57;;;;;;;3.90;2.70;;;;;21.20;99533.00;;;;2050380;28;20239;-87
2022/02/15 00:20:58;;;;;;;4.67;2.97;;;;;21.30;99530.00;;;;2060693;28;20211;-88
2022/02/15 00:21:58;;;;;;;3.70;2.87;;;;;21.30;99543.00;;;;2060023;28;20218;-88
2022/02/15 00:22:58;;;;;;;4.60;2.90;;;;;21.20;99535.00;;;;2059977;28;20214;-88
2022/02/15 00:23:59;;;;;;;4.07;2.50;;;;;21.20;99543.00;;;;2060125;28;20207;-87
2022/02/15 00:24:59;;;;;;;3.40;2.73;;;;;21.20;99536.00;;;;2060148;28;20233;-86
2022/02/15 00:25:59;;;;;;;3.20;2.70;;;;;21.30;99546.00;;;;2060240;28;20226;-88
2022/02/15 00:27:00;;;;;;;3.20;2.70;;;;;21.20;99543.00;;;;2059501;28;20216;-87
2022/02/15 00:28:00;;;;;;;3.73;2.60;;;;;21.20;99542.00;;;;2060065;28;20207;-87
2022/02/15 00:29:01;;;;;;;3.83;2.47;;;;;21.20;99547.00;;;;2059399;28;20790;-89
2022/02/15 00:30:02;;;;;;;4.70;2.67;;;;;21.20;99548.00;;;;2059668;28;20298;-88
2022/02/15 00:31:02;;;;;;;4.57;2.40;;;;;21.20;99551.00;;;;2060287;28;20215;-88
2022/02/15 00:32:02;;;;;;;3.87;2.60;;;;;21.20;99543.00;;;;2060924;28;20239;-88
2022/02/15 00:33:03;;;;;;;4.70;2.80;;;;;21.20;99546.00;;;;2061029;28;20222;-89
2022/02/15 00:34:03;;;;;;;2.73;2.27;;;;;21.00;99553.00;;;;2060316;28;20237;-88
2022/02/15 00:35:04;;;;;;;3.90;2.30;;;;;21.20;99549.00;;;;2059888;28;20251;-89
2022/02/15 00:36:04;;;;;;;4.30;2.80;;;;;21.20;99551.00;;;;2061533;28;20214;-88
2022/02/15 00:37:05;;;;;;;3.30;2.40;;;;;21.10;99550.00;;;;2060422;28;20714;-87
2022/02/15 00:38:05;;;;;;;5.37;2.40;;;;;21.20;99545.00;;;;2060613;28;20253;-88
2022/02/15 00:39:05;;;;;;;4.17;2.40;;;;;21.20;99550.00;;;;2059910;28;20210;-88
2022/02/15 00:40:06;;;;;;;3.30;2.20;;;;;21.10;99543.00;;;;2060011;28;20255;-88
2022/02/15 00:41:07;;;;;;;2.97;1.97;;;;;21.20;99550.00;;;;2059752;28;20668;-88
2022/02/15 00:42:08;;;;;;;3.80;2.25;;;;;21.20;99556.00;;;;2059960;28;20626;-88
2022/02/15 00:43:08;;;;;;;3.80;2.20;;;;;21.10;99548.00;;;;2060600;28;20215;-88
2022/02/15 00:44:08;;;;;;;4.20;2.47;;;;;21.20;99556.00;;;;2058906;28;20596;-86
2022/02/15 00:45:09;;;;;;;2.80;2.03;;;;;21.10;99553.00;;;;2061008;28;20203;-88
2022/02/15 00:46:09;;;;;;;6.57;3.00;;;;;21.20;99568.00;;;;2061204;28;20221;-89
2022/02/15 00:47:10;;;;;;;4.57;2.53;;;;;21.10;99576.00;;;;2060666;28;20215;-88
2022/02/15 00:48:10;;;;;;;3.27;2.00;;;;;21.10;99567.00;;;;2060059;28;20203;-88
2022/02/15 00:49:11;;;;;;;3.93;2.47;;;;;21.10;99570.00;;;;2054944;28;20326;-88
2022/02/15 00:50:11;;;;;;;3.33;2.20;;;;;21.10;99570.00;;;;2066763;28;20234;-87
2022/02/15 00:51:11;;;;;;;3.83;2.40;;;;;21.10;99571.00;;;;2061801;28;20227;-88
2022/02/15 00:52:12;;;;;;;4.90;2.37;;;;;21.10;99570.00;;;;2059581;28;20231;-88
2022/02/15 00:53:12;;;;;;;4.03;2.20;;;;;21.10;99575.00;;;;2060234;28;20310;-88
2022/02/15 00:54:14;;;;;;;4.00;2.23;;;;;21.10;99572.00;;;;2057917;28;20224;-88
2022/02/15 00:55:14;;;;;;;6.90;2.30;;;;;21.10;99570.00;;;;2059995;28;20262;-88
2022/02/15 00:56:15;;;;;;;3.43;2.13;;;;;21.10;99570.00;;;;2061111;28;20282;-88
2022/02/15 00:57:16;;;;;;;3.80;2.27;;;;;21.10;99574.00;;;;2060873;28;20290;-87
2022/02/15 00:58:16;;;;;;;3.53;2.43;;;;;21.10;99578.00;;;;2061109;28;20261;-87
2022/02/15 00:59:16;;;;;;;2.73;2.30;;;;;21.10;99576.00;;;;2054646;28;20219;-89
2022/02/15 01:00:17;;;;;;;3.40;2.00;;;;;21.10;99576.00;;;;2059904;28;20247;-88
2022/02/15 01:01:17;;;;;;;3.90;2.00;;;;;21.10;99568.00;;;;2060266;28;20218;-89
2022/02/15 01:02:17;;;;;;;4.40;1.87;;;;;21.00;99574.00;;;;2060227;28;20241;-89
2022/02/15 01:03:18;;;;;;;9.00;2.30;;;;;21.10;99568.00;;;;2060178;28;20596;-88
2022/02/15 01:04:18;;;;;;;5.47;2.17;;;;;21.10;99578.00;;;;2059462;28;20216;-89
2022/02/15 01:05:18;;;;;;;3.33;2.40;;;;;21.10;99573.00;;;;2058906;28;20222;-89
2022/02/15 01:06:19;;;;;;;3.33;1.87;;;;;21.00;99573.00;;;;2057563;28;20234;-88
2022/02/15 01:07:19;;;;;;;6.43;2.27;;;;;21.10;99576.00;;;;2058668;28;20258;-89
2022/02/15 01:08:19;;;;;;;4.20;2.30;;;;;21.10;99578.00;;;;2060861;28;20224;-89
2022/02/15 01:09:20;;;;;;;4.30;2.27;;;;;21.00;99574.00;;;;2056846;28;20249;-89
2022/02/15 01:10:20;;;;;;;3.60;1.90;;;;;21.00;99576.00;;;;2060066;28;20251;-90
2022/02/15 01:11:20;;;;;;;2.63;1.50;;;;;21.00;99573.00;;;;2060235;28;20219;-88
2022/02/15 01:12:21;;;;;;;3.87;2.13;;;;;21.00;99569.00;;;;2063631;28;20211;-89
2022/02/15 01:13:21;;;;;;;3.87;2.03;;;;;21.00;99581.00;;;;2060161;28;20218;-89
2022/02/15 01:14:21;;;;;;;4.13;1.97;;;;;21.00;99577.00;;;;2049392;28;20226;-90
2022/02/15 01:15:22;;;;;;;4.10;1.87;;;;;21.00;99576.00;;;;2058121;28;20306;-89
2022/02/15 01:16:22;;;;;;;2.90;2.03;;;;;21.00;99570.00;;;;2062050;28;20238;-89
2022/02/15 01:17:22;;;;;;;6.27;2.37;;;;;21.00;99571.00;;;;2059209;28;20997;-89
2022/02/15 01:18:26;;;;;;;3.20;2.20;;;;;21.00;99569.00;;;;2059744;28;20249;-89
2022/02/15 01:19:26;;;;;;;3.83;1.90;;;;;21.00;99582.00;;;;2059690;28;20351;-88
2022/02/15 01:20:27;;;;;;;4.80;2.27;;;;;21.00;99582.00;;;;2058861;28;20219;-88
2022/02/15 01:21:27;;;;;;;5.67;2.40;;;;;21.00;99580.00;;;;2059633;28;20590;-89
2022/02/15 01:22:27;;;;;;;2.70;1.80;;;;;21.00;99576.00;;;;2059491;28;20561;-89
2022/02/15 01:23:28;;;;;;;3.23;1.73;;;;;21.00;99568.00;;;;2059522;28;20271;-89
2022/02/15 01:24:28;;;;;;;4.77;1.80;;;;;21.00;99578.00;;;;2059339;28;20207;-89
2022/02/15 01:25:28;;;;;;;2.60;1.87;;;;;21.00;99567.00;;;;2059654;28;20222;-88
2022/02/15 01:26:28;;;;;;;5.43;2.30;;;;;21.00;99577.00;;;;2053310;28;20214;-88
2022/02/15 01:27:29;;;;;;;4.80;2.00;;;;;21.00;99572.00;;;;2060587;28;20306;-89
2022/02/15 01:28:30;;;;;;;5.07;2.00;;;;;20.90;99572.00;;;;2060726;28;20203;-89
2022/02/15 01:29:30;;;;;;;4.75;2.00;;;;;21.00;99569.00;;;;2059915;28;20206;-88
2022/02/15 01:30:31;;;;;;;4.70;2.10;;;;;21.00;99576.00;;;;2057027;28;20572;-89
2022/02/15 01:31:31;;;;;;;3.50;2.13;;;;;21.00;99571.00;;;;2060631;28;20257;-89
2022/02/15 01:32:31;;;;;;;3.13;1.80;;;;;21.00;99578.00;;;;2060656;28;20225;-88
2022/02/15 01:33:32;;;;;;;4.17;2.00;;;;;21.00;99576.00;;;;2059559;28;20211;-89
2022/02/15 01:34:32;;;;;;;4.43;2.10;;;;;21.00;99577.00;;;;2059709;28;20356;-89
2022/02/15 01:35:32;;;;;;;3.80;2.00;;;;;21.00;99580.00;;;;2059869;28;20666;-90
2022/02/15 01:36:33;;;;;;;2.63;2.00;;;;;21.00;99572.00;;;;2059071;28;20578;-89
2022/02/15 01:37:33;;;;;;;3.33;1.80;;;;;21.00;99560.00;;;;2060734;28;20270;-89
2022/02/15 01:38:33;;;;;;;4.57;2.10;;;;;21.00;99582.00;;;;2060604;28;20224;-89
2022/02/15 01:39:34;;;;;;;4.47;1.93;;;;;21.00;99578.00;;;;2063973;28;20223;-90
2022/02/15 01:40:34;;;;;;;2.80;1.80;;;;;21.00;99582.00;;;;2060109;28;20219;-88
2022/02/15 01:41:34;;;;;;;3.60;1.90;;;;;20.90;99581.00;;;;2056787;28;20219;-89
2022/02/15 01:42:35;;;;;;;4.33;1.87;;;;;20.90;99591.00;;;;2058111;28;20302;-89
2022/02/15 01:43:42;;;;;;;3.97;1.80;;;;;21.00;99591.00;;;;2060704;28;20350;-89
2022/02/15 01:44:42;;;;;;;3.13;1.90;;;;;20.90;99587.00;;;;2067517;28;20206;-89
2022/02/15 01:45:43;;;;;;;5.43;2.30;;;;;20.90;99592.00;;;;2067559;28;20207;-90
2022/02/15 01:46:43;;;;;;;3.67;2.20;;;;;21.00;99595.00;;;;2059847;28;20265;-89
2022/02/15 01:47:44;;;;;;;4.07;1.90;;;;;20.90;99591.00;;;;2059951;28;20215;-89
2022/02/15 01:48:47;;;;;;;2.83;1.97;;;;;21.00;99589.00;;;;2062155;28;20234;-89
2022/02/15 01:49:47;;;;;;;2.75;1.88;;;;;21.00;99596.00;;;;2051518;28;20446;-88
2022/02/15 01:50:47;;;;;;;4.10;1.77;;;;;20.90;99607.00;;;;2049459;28;20239;-89
2022/02/15 01:51:48;;;;;;;3.73;2.20;;;;;20.90;99588.00;;;;2059294;28;20219;-90
2022/02/15 01:52:48;;;;;;;3.30;2.13;;;;;20.90;99600.00;;;;2063303;28;20215;-90
2022/02/15 01:53:49;;;;;;;3.53;1.97;;;;;20.90;99597.00;;;;2059785;28;20215;-90
2022/02/15 01:54:50;;;;;;;2.63;1.80;;;;;20.90;99593.00;;;;2060194;28;20215;-89
2022/02/15 01:55:51;;;;;;;3.15;2.00;;;;;20.90;99590.00;;;;2060067;28;20218;-89
2022/02/15 01:56:51;;;;;;;4.90;1.83;;;;;20.90;99598.00;;;;2060521;28;20199;-90
2022/02/15 01:57:52;;;;;;;2.83;1.77;;;;;20.90;99591.00;;;;2060163;28;20608;-88
2022/02/15 01:58:52;;;;;;;2.93;1.97;;;;;20.90;99594.00;;;;2059633;28;20237;-90
2022/02/15 01:59:54;;;;;;;4.27;1.60;;;;;20.90;99594.00;;;;2059796;28;20210;-90
2022/02/15 02:00:54;;;;;;;2.90;1.67;;;;;20.90;99600.00;;;;2059464;28;20203;-89
2022/02/15 02:01:55;;;;;;;4.60;1.77;;;;;20.90;99598.00;;;;2060325;28;20204;-89
2022/02/15 02:02:55;;;;;;;3.20;2.00;;;;;20.90;99603.00;;;;2060619;28;20242;-90
2022/02/15 02:03:55;;;;;;;6.70;1.87;;;;;20.90;99591.00;;;;2058258;28;20207;-89
2022/02/15 02:06:14;;;;;;;4.97;1.95;;;;;20.90;99597.00;;;;2063232;28;20690;-89
2022/02/15 02:07:15;;;;;;;2.53;1.97;;;;;20.90;99596.00;;;;2059882;28;20223;-89
2022/02/15 02:08:19;;;;;;;3.67;1.97;;;;;20.90;99604.00;;;;2052216;28;20234;-89
2022/02/15 02:09:19;;;;;;;3.35;2.05;;;;;20.90;99603.00;;;;2057328;28;21455;-89
2022/02/15 02:10:20;;;;;;;3.57;1.80;;;;;20.90;99593.00;;;;2062368;28;20284;-90
2022/02/15 02:11:20;;;;;;;2.03;1.53;;;;;20.90;99602.00;;;;2059346;28;20222;-90
2022/02/15 02:12:21;;;;;;;3.80;2.00;;;;;20.90;99600.00;;;;2051355;28;20269;-90
2022/02/15 02:13:21;;;;;;;3.33;1.67;;;;;20.90;99603.00;;;;2067646;28;20225;-89
2022/02/15 02:14:22;;;;;;;4.30;2.27;;;;;20.80;99594.00;;;;2066843;28;20845;-90
2022/02/15 02:15:24;;;;;;;3.33;1.60;;;;;20.90;99595.00;;;;2066926;28;20705;-89
2022/02/15 02:16:31;;;;;;;3.15;2.00;;;;;20.90;99599.00;;;;2060817;28;20218;-89
2022/02/15 02:17:32;;;;;;;3.45;1.80;;;;;20.80;99602.00;;;;2056922;28;20220;-89
2022/02/15 02:18:32;;;;;;;3.90;1.90;;;;;20.80;99607.00;;;;2058875;28;20219;-89
2022/02/15 02:19:32;;;;;;;5.03;1.60;;;;;20.80;99603.00;;;;2059916;28;20595;-89
2022/02/15 02:20:33;;;;;;;3.67;2.00;;;;;20.80;99610.00;;;;2060227;28;20290;-89
2022/02/15 02:21:42;;;;;;;4.50;1.77;;;;;20.80;99610.00;;;;2063128;28;20238;-90
2022/02/15 02:22:42;;;;;;;3.55;2.10;;;;;20.80;99614.00;;;;2046772;28;20217;-89
2022/02/15 02:23:42;;;;;;;5.40;2.10;;;;;20.80;99615.00;;;;2066302;28;20681;-89
2022/02/15 02:24:43;;;;;;;3.30;2.50;;;;;20.80;99619.00;;;;2053072;28;20645;-89
2022/02/15 02:25:43;;;;;;;4.50;2.30;;;;;20.80;99617.00;;;;2062600;28;20582;-89
2022/02/15 02:26:44;;;;;;;3.60;1.93;;;;;20.80;99616.00;;;;2052335;28;20708;-90
2022/02/15 02:27:44;;;;;;;4.73;2.10;;;;;20.80;99618.00;;;;2047768;28;20218;-89
2022/02/15 02:28:45;;;;;;;5.83;2.37;;;;;20.80;99622.00;;;;2050426;28;20338;-90
2022/02/15 02:29:45;;;;;;;2.80;1.87;;;;;20.80;99618.00;;;;2066515;28;20277;-89
2022/02/15 02:30:45;;;;;;;4.13;1.80;;;;;20.80;99621.00;;;;2063845;28;20219;-90
2022/02/15 02:31:46;;;;;;;4.50;2.07;;;;;20.80;99625.00;;;;2060457;28;20613;-88
2022/02/15 02:32:46;;;;;;;4.20;1.87;;;;;20.80;99623.00;;;;2058055;28;20297;-89
2022/02/15 02:33:46;;;;;;;4.07;2.00;;;;;20.80;99626.00;;;;2058990;28;20808;-89
2022/02/15 02:34:47;;;;;;;3.17;2.07;;;;;20.80;99621.00;;;;2059830;28;20695;-90
2022/02/15 02:35:57;;;;;;;2.80;1.70;;;;;20.80;99623.00;;;;2060989;28;20203;-88
2022/02/15 02:36:57;;;;;;;3.17;2.15;;;;;20.80;99612.00;;;;2059878;28;20698;-87
2022/02/15 02:37:58;;;;;;;4.33;2.20;;;;;20.80;99615.00;;;;2060450;28;20218;-86
2022/02/15 02:38:58;;;;;;;3.53;2.13;;;;;20.80;99623.00;;;;2058730;28;20226;-89
2022/02/15 02:40:00;;;;;;;3.83;2.20;;;;;20.80;99626.00;;;;2059671;28;20234;-90
2022/02/15 02:41:00;;;;;;;3.95;2.30;;;;;20.80;99624.00;;;;2059422;28;20302;-89
2022/02/15 02:42:00;;;;;;;3.63;1.93;;;;;20.80;99635.00;;;;2059474;28;20211;-88
2022/02/15 02:43:01;;;;;;;4.43;2.30;;;;;20.80;99625.00;;;;2059562;28;20285;-88
2022/02/15 02:44:01;;;;;;;4.83;2.40;;;;;20.80;99636.00;;;;2059541;28;20199;-89
2022/02/15 02:45:04;;;;;;;5.03;2.00;;;;;20.80;99628.00;;;;2061667;28;20278;-89
2022/02/15 02:46:05;;;;;;;4.22;1.80;;;;;20.80;99631.00;;;;2059878;28;20203;-89
2022/02/15 02:47:05;;;;;;;2.97;1.90;;;;;20.80;99636.00;;;;2060113;28;20270;-89
2022/02/15 02:48:06;;;;;;;4.13;2.33;;;;;20.70;99634.00;;;;2060355;28;20644;-89
2022/02/15 02:49:06;;;;;;;2.53;2.27;;;;;20.80;99640.00;;;;2057460;28;20768;-89
2022/02/15 02:50:07;;;;;;;3.70;1.87;;;;;20.80;99635.00;;;;2058582;28;20714;-87
2022/02/15 02:51:07;;;;;;;3.63;2.60;;;;;20.80;99631.00;;;;2058545;28;20358;-89
2022/02/15 02:52:07;;;;;;;3.50;2.50;;;;;20.80;99642.00;;;;2055977;28;20215;-89
2022/02/15 02:53:10;;;;;;;3.40;2.27;;;;;20.80;99640.00;;;;2059579;28;20215;-89
2022/02/15 02:54:10;;;;;;;2.95;1.98;;;;;20.80;99641.00;;;;2052331;28;20223;-89
2022/02/15 02:55:11;;;;;;;3.50;2.13;;;;;20.70;99648.00;;;;2059525;28;20214;-89
2022/02/15 02:56:11;;;;;;;4.00;2.70;;;;;20.70;99646.00;;;;2059408;28;20219;-88
2022/02/15 02:57:14;;;;;;;3.40;1.93;;;;;20.70;99644.00;;;;2057069;28;20230;-90
2022/02/15 02:58:15;;;;;;;2.78;2.30;;;;;20.70;99648.00;;;;2058816;28;20227;-89
2022/02/15 02:59:15;;;;;;;4.50;2.33;;;;;20.70;99654.00;;;;2058360;28;20218;-89
2022/02/15 03:00:16;;;;;;;4.10;2.63;;;;;20.70;99655.00;;;;2058666;28;20215;-89
2022/02/15 03:01:16;;;;;;;5.80;2.72;;;;;20.70;99652.00;;;;2058650;28;20265;-89
2022/02/15 03:02:17;;;;;;;4.27;2.57;;;;;20.70;99651.00;;;;2060381;28;20667;-89
2022/02/15 03:03:17;;;;;;;5.30;2.90;;;;;20.50;99652.00;;;;2060373;28;20239;-89
2022/02/15 03:04:17;;;;;;;4.53;2.63;;;;;20.70;99652.00;;;;2060187;28;20208;-90
2022/02/15 03:05:18;;;;;;;3.83;2.23;;;;;20.70;99651.00;;;;2060354;28;20215;-90
2022/02/15 03:06:21;;;;;;;4.33;2.90;;;;;20.70;99658.00;;;;2059485;28;20931;-90
2022/02/15 03:07:22;;;;;;;5.40;2.70;;;;;20.70;99656.00;;;;2059516;28;20211;-89
2022/02/15 03:08:22;;;;;;;6.10;3.00;;;;;20.70;99668.00;;;;2059452;28;20219;-90
2022/02/15 03:09:22;;;;;;;3.47;2.50;;;;;20.70;99662.00;;;;2059615;28;20215;-89
2022/02/15 03:10:22;;;;;;;2.83;2.30;;;;;20.70;99669.00;;;;2059392;28;20216;-89
2022/02/15 03:11:23;;;;;;;3.10;2.77;;;;;20.70;99670.00;;;;2059483;28;20280;-90
2022/02/15 03:12:23;;;;;;;3.23;2.70;;;;;20.70;99665.00;;;;2061778;28;20222;-90
2022/02/15 03:13:24;;;;;;;5.87;2.77;;;;;20.70;99660.00;;;;2060243;28;20238;-90
2022/02/15 03:14:25;;;;;;;4.65;2.72;;;;;20.70;99669.00;;;;2059125;28;20278;-89
2022/02/15 03:15:25;;;;;;;3.67;2.63;;;;;20.70;99669.00;;;;2059424;28;20280;-89
2022/02/15 03:16:26;;;;;;;4.17;2.60;;;;;20.70;99666.00;;;;2058396;28;20216;-89
2022/02/15 03:17:26;;;;;;;4.50;2.70;;;;;20.70;99677.00;;;;2059986;28;20285;-86
2022/02/15 03:18:27;;;;;;;5.30;2.67;;;;;20.70;99674.00;;;;2059583;28;20473;-88
2022/02/15 03:19:27;;;;;;;5.17;2.70;;;;;20.70;99669.00;;;;2060479;28;20222;-82
2022/02/15 03:20:27;;;;;;;3.90;3.00;;;;;20.70;99675.00;;;;2059439;28;20231;-86
2022/02/15 03:21:28;;;;;;;4.73;2.80;;;;;20.70;99672.00;;;;2057288;28;20207;-87
2022/02/15 03:22:28;;;;;;;5.40;2.97;;;;;20.70;99668.00;;;;2060039;28;20270;-89
2022/02/15 03:23:28;;;;;;;3.37;2.63;;;;;20.70;99669.00;;;;2058326;28;20203;-89
2022/02/15 03:24:29;;;;;;;5.00;2.70;;;;;20.70;99682.00;;;;2062010;28;20257;-88
2022/02/15 03:25:29;;;;;;;4.13;2.70;;;;;20.70;99676.00;;;;2055356;28;20222;-88
2022/02/15 03:26:29;;;;;;;6.83;3.03;;;;;20.70;99676.00;;;;2058408;28;20219;-88
2022/02/15 03:27:30;;;;;;;4.07;2.83;;;;;20.60;99676.00;;;;2059908;28;20207;-88
2022/02/15 03:28:30;;;;;;;5.27;3.37;;;;;20.70;99678.00;;;;2059430;28;20254;-88
2022/02/15 03:29:30;;;;;;;4.50;2.77;;;;;20.70;99687.00;;;;2057076;28;20223;-89
2022/02/15 03:30:31;;;;;;;3.33;2.80;;;;;20.60;99672.00;;;;2060963;28;20261;-90
2022/02/15 03:31:31;;;;;;;3.93;2.70;;;;;20.60;99682.00;;;;2061167;28;20215;-90
2022/02/15 03:32:31;;;;;;;5.87;3.23;;;;;20.60;99678.00;;;;2057308;28;20266;-89
2022/02/15 03:33:32;;;;;;;3.50;3.00;;;;;20.60;99676.00;;;;2063366;28;20233;-90
2022/02/15 03:34:32;;;;;;;4.97;3.30;;;;;20.60;99677.00;;;;2051543;28;20219;-89
2022/02/15 03:35:33;;;;;;;4.73;3.23;;;;;20.60;99680.00;;;;2060998;28;20760;-89
2022/02/15 03:36:33;;;;;;;4.17;2.77;;;;;20.60;99684.00;;;;2055544;28;20686;-88
2022/02/15 03:37:33;;;;;;;3.30;3.00;;;;;20.60;99684.00;;;;2068693;28;20211;-90
2022/02/15 03:38:34;;;;;;;4.47;3.40;;;;;20.60;99691.00;;;;2068781;28;20244;-90
2022/02/15 03:39:35;;;;;;;4.83;3.63;;;;;20.60;99687.00;;;;2060838;28;20211;-90
2022/02/15 03:43:13;;;;;;;5.35;4.20;;;;;20.60;99683.00;;;;2064516;28;20219;-89
2022/02/15 03:44:14;;;;;;;5.90;3.73;;;;;20.60;99678.00;;;;2060914;28;20235;-90
2022/02/15 03:45:14;;;;;;;4.13;3.70;;;;;20.60;99686.00;;;;2050965;28;20235;-89
2022/02/15 03:46:14;;;;;;;4.73;3.90;;;;;20.60;99683.00;;;;2051957;28;20235;-89
2022/02/15 03:47:15;;;;;;;4.40;4.00;;;;;20.60;99678.00;;;;2043297;28;20249;-90
2022/02/15 03:48:15;;;;;;;4.90;3.93;;;;;20.60;99687.00;;;;2057978;28;20224;-89
2022/02/15 03:49:15;;;;;;;4.93;4.27;;;;;20.60;99696.00;;;;2065529;28;20243;-89
2022/02/15 03:50:16;;;;;;;4.90;4.40;;;;;20.60;99691.00;;;;2063830;28;20761;-89
2022/02/15 03:51:16;;;;;;;8.63;4.50;;;;;20.60;99687.00;;;;2059404;28;20647;-88
2022/02/15 03:52:16;;;;;;;4.83;4.43;;;;;20.60;99692.00;;;;2052517;28;20243;-88
2022/02/15 03:53:17;;;;;;;5.43;4.30;;;;;20.60;99699.00;;;;2058365;28;20211;-89
2022/02/15 03:54:18;;;;;;;5.60;4.80;;;;;20.60;99686.00;;;;2060248;28;20227;-90
2022/02/15 03:55:18;;;;;;;6.10;4.93;;;;;20.60;99696.00;;;;2060164;28;20984;-88
2022/02/15 03:56:19;;;;;;;6.30;4.70;;;;;20.60;99700.00;;;;2060194;28;20647;-89
2022/02/15 03:57:19;;;;;;;5.80;4.95;;;;;20.60;99697.00;;;;2061777;28;20645;-89
2022/02/15 03:58:20;;;;;;;6.40;4.47;;;;;20.60;99697.00;;;;2061499;28;20223;-89
2022/02/15 03:59:20;;;;;;;6.13;5.00;;;;;20.60;99713.00;;;;2057573;28;20223;-89
2022/02/15 04:00:20;;;;;;;5.20;4.70;;;;;20.60;99712.00;;;;2057693;28;20658;-89
2022/02/15 04:01:21;;;;;;;4.87;4.47;;;;;20.60;99719.00;;;;2059818;28;20704;-90
2022/02/15 04:02:21;;;;;;;5.83;4.80;;;;;20.60;99710.00;;;;2059027;28;20314;-89
2022/02/15 04:03:21;;;;;;;6.33;5.00;;;;;20.60;99713.00;;;;2060987;28;20250;-89
2022/02/15 04:04:22;;;;;;;7.10;4.77;;;;;20.60;99719.00;;;;2058443;28;20694;-88
2022/02/15 04:05:22;;;;;;;5.33;4.63;;;;;20.60;99716.00;;;;2059633;28;20238;-89
2022/02/15 04:06:23;;;;;;;5.30;4.80;;;;;20.60;99719.00;;;;2051879;28;20222;-89
2022/02/15 04:07:23;;;;;;;6.90;4.87;;;;;20.60;99722.00;;;;2059993;28;20462;-88
2022/02/15 04:08:23;;;;;;;5.10;4.60;;;;;20.60;99717.00;;;;2060775;28;20259;-89
2022/02/15 04:09:24;;;;;;;7.00;5.30;;;;;20.50;99710.00;;;;2063039;28;20219;-89
2022/02/15 04:10:24;;;;;;;5.47;4.90;;;;;20.50;99718.00;;;;2060099;28;20219;-89
2022/02/15 04:11:25;;;;;;;5.70;5.10;;;;;20.50;99718.00;;;;2060253;28;20222;-89
2022/02/15 04:12:25;;;;;;;6.23;4.47;;;;;20.50;99720.00;;;;2063441;28;20223;-88
2022/02/15 04:13:25;;;;;;;7.90;4.90;;;;;20.50;99725.00;;;;2060050;28;20222;-89
2022/02/15 04:14:25;;;;;;;5.80;5.20;;;;;20.50;99718.00;;;;2052814;28;20765;-89
2022/02/15 04:15:26;;;;;;;7.17;5.03;;;;;20.60;99713.00;;;;2059013;28;20706;-89
2022/02/15 04:16:26;;;;;;;5.30;4.80;;;;;20.50;99715.00;;;;2061191;28;20671;-89
2022/02/15 04:17:26;;;;;;;5.50;4.90;;;;;20.50;99722.00;;;;2059991;28;20599;-89
2022/02/15 04:18:27;;;;;;;6.63;5.50;;;;;20.50;99732.00;;;;2059936;28;20789;-88
2022/02/15 04:19:27;;;;;;;5.67;5.00;;;;;20.50;99718.00;;;;2050636;28;20714;-89
2022/02/15 04:20:27;;;;;;;5.90;5.27;;;;;20.50;99724.00;;;;2059485;28;20234;-89
2022/02/15 04:21:28;;;;;;;6.47;5.30;;;;;20.50;99724.00;;;;2060920;28;20263;-88
2022/02/15 04:22:28;;;;;;;6.27;5.50;;;;;20.50;99727.00;;;;2060719;28;20219;-89
2022/02/15 04:23:28;;;;;;;6.13;5.53;;;;;20.50;99721.00;;;;2061146;28;20242;-89
2022/02/15 04:24:29;;;;;;;6.30;5.27;;;;;20.50;99722.00;;;;2057635;28;25258;-89
2022/02/15 04:25:29;;;;;;;6.60;5.10;;;;;20.50;99731.00;;;;2060665;28;20227;-87
2022/02/15 04:26:29;;;;;;;7.20;4.93;;;;;20.50;99725.00;;;;2061454;28;20231;-89
2022/02/15 04:27:30;;;;;;;5.10;4.30;;;;;20.50;99730.00;;;;2063037;28;20254;-89
2022/02/15 04:28:30;;;;;;;5.37;4.70;;;;;20.50;99745.00;;;;2060357;28;20599;-89
2022/02/15 04:29:30;;;;;;;6.20;5.60;;;;;20.50;99732.00;;;;2059671;28;20548;-88
2022/02/15 04:30:31;;;;;;;5.37;4.87;;;;;20.50;99735.00;;;;2052755;28;20733;-89
2022/02/15 04:31:31;;;;;;;6.53;5.87;;;;;20.50;99743.00;;;;2059469;28;20675;-89
2022/02/15 04:32:32;;;;;;;7.00;5.40;;;;;20.50;99737.00;;;;2062994;28;20215;-89
2022/02/15 04:33:32;;;;;;;6.53;5.80;;;;;20.50;99743.00;;;;2061272;28;20321;-90
2022/02/15 04:34:32;;;;;;;6.43;5.40;;;;;20.50;99749.00;;;;2060509;28;20225;-89
2022/02/15 04:35:32;;;;;;;7.07;5.33;;;;;20.50;99754.00;;;;2060604;28;20223;-89
2022/02/15 04:36:33;;;;;;;5.50;4.87;;;;;20.50;99741.00;;;;2062372;28;20273;-89
2022/02/15 04:37:33;;;;;;;8.87;5.30;;;;;20.50;99757.00;;;;2060386;28;20306;-89
2022/02/15 04:38:34;;;;;;;6.03;5.53;;;;;20.50;99754.00;;;;2060584;28;20230;-90
2022/02/15 04:39:34;;;;;;;6.30;5.70;;;;;20.50;99754.00;;;;2056552;28;20225;-89
2022/02/15 04:40:34;;;;;;;5.93;5.33;;;;;20.50;99750.00;;;;2067050;28;20214;-89
2022/02/15 04:41:34;;;;;;;5.53;4.60;;;;;20.50;99762.00;;;;2057564;28;20284;-89
2022/02/15 04:42:35;;;;;;;6.20;5.37;;;;;20.50;99758.00;;;;2067145;28;20218;-90
2022/02/15 04:43:35;;;;;;;5.93;5.33;;;;;20.40;99765.00;;;;2065763;28;20288;-88
2022/02/15 04:44:35;;;;;;;6.50;5.90;;;;;20.50;99762.00;;;;2060534;28;20218;-89
2022/02/15 04:45:36;;;;;;;5.83;5.23;;;;;20.40;99766.00;;;;2063071;28;20234;-90
2022/02/15 04:46:36;;;;;;;5.90;5.40;;;;;20.40;99768.00;;;;2057812;28;20224;-89
2022/02/15 04:47:36;;;;;;;6.13;5.23;;;;;20.50;99767.00;;;;2061219;28;20219;-89
2022/02/15 04:48:37;;;;;;;6.23;5.67;;;;;20.40;99769.00;;;;2063353;28;20223;-89
2022/02/15 04:49:38;;;;;;;5.87;5.27;;;;;20.50;99764.00;;;;2060560;28;20226;-90
2022/02/15 04:50:38;;;;;;;6.03;5.43;;;;;20.40;99765.00;;;;2060004;28;20223;-89
2022/02/15 04:51:39;;;;;;;6.80;5.70;;;;;20.40;99765.00;;;;2060901;28;20215;-89
2022/02/15 04:52:39;;;;;;;5.80;5.20;;;;;20.40;99753.00;;;;2061330;28;20216;-89
2022/02/15 04:53:39;;;;;;;6.73;5.43;;;;;20.40;99765.00;;;;2060453;28;20208;-90
2022/02/15 04:54:40;;;;;;;6.50;5.00;;;;;20.40;99766.00;;;;2060055;28;20215;-90
2022/02/15 04:55:41;;;;;;;6.57;5.43;;;;;20.40;99775.00;;;;2060129;28;20245;-89
2022/02/15 04:56:41;;;;;;;6.90;5.70;;;;;20.40;99771.00;;;;2060283;28;20239;-89
2022/02/15 04:57:41;;;;;;;7.60;5.47;;;;;20.40;99774.00;;;;2060583;28;20486;-89
2022/02/15 04:58:42;;;;;;;8.00;6.13;;;;;20.40;99780.00;;;;2060303;28;20222;-89
2022/02/15 04:59:42;;;;;;;5.60;5.00;;;;;20.40;99780.00;;;;2059270;28;20222;-89
2022/02/15 05:00:42;;;;;;;6.33;5.23;;;;;20.40;99774.00;;;;2059730;28;20218;-89
2022/02/15 05:01:43;;;;;;;8.10;5.00;;;;;20.40;99780.00;;;;2060770;28;20641;-88
2022/02/15 05:02:43;;;;;;;6.20;5.60;;;;;20.40;99778.00;;;;2060449;28;20215;-89
2022/02/15 05:03:43;;;;;;;6.10;5.43;;;;;20.40;99774.00;;;;2061130;28;20219;-90
2022/02/15 05:04:50;;;;;;;5.53;5.03;;;;;20.40;99782.00;;;;2059780;28;20214;-89
2022/02/15 05:05:50;;;;;;;6.05;5.47;;;;;20.40;99773.00;;;;2058870;28;20480;-89
2022/02/15 05:06:50;;;;;;;6.40;5.20;;;;;20.40;99774.00;;;;2060474;28;20662;-89
2022/02/15 05:07:51;;;;;;;6.07;5.17;;;;;20.40;99783.00;;;;2056978;28;20741;-89